Time;durP1;ratioP1;P1;durP2;ratioP2;P2;SDS_P1;SDS_P2;PMS_P1;PMS_P2;Temp;Humidity;BMP_temperature;BMP_pressure;BME280_temperature;BME280_humidity;BME280_pressure;Samples;Min_cycle;Max_cycle;Signal;HPM_P1;HPM_P2
2023/06/22 00:01:24;;;;;;;11.18;4.18;;;;;;;27.60;53.39;99784.56;4349246;32;33270;-57
2023/06/22 00:03:52;;;;;;;15.30;3.95;;;;;;;27.56;54.04;99793.50;4362201;32;33586;-57
2023/06/22 00:06:20;;;;;;;9.13;4.03;;;;;;;27.34;54.02;99796.59;4354266;32;34905;-57
2023/06/22 00:08:47;;;;;;;9.55;3.78;;;;;;;27.57;53.07;99800.66;4354493;32;33989;-58
2023/06/22 00:11:15;;;;;;;10.55;3.90;;;;;;;27.46;53.53;99802.22;4349240;33;33539;-58
2023/06/22 00:13:43;;;;;;;6.18;3.65;;;;;;;27.47;53.22;99812.16;4349935;33;33688;-57
2023/06/22 00:16:10;;;;;;;9.02;3.80;;;;;;;27.42;53.42;99812.00;4361124;32;34987;-58
2023/06/22 00:18:38;;;;;;;7.93;3.53;;;;;;;27.12;55.67;99798.84;4358146;32;34100;-58
2023/06/22 00:21:06;;;;;;;8.85;4.18;;;;;;;27.11;55.98;99802.66;4357745;32;33551;-58
2023/06/22 00:23:34;;;;;;;11.60;4.97;;;;;;;27.08;55.96;99791.28;4349854;32;34087;-57
2023/06/22 00:26:02;;;;;;;7.78;3.75;;;;;;;27.06;55.59;99787.91;4350078;32;33853;-58
2023/06/22 00:28:30;;;;;;;8.13;3.83;;;;;;;27.15;55.35;99792.09;4347661;32;33819;-57
2023/06/22 00:30:57;;;;;;;9.98;2.92;;;;;;;27.15;55.22;99797.59;4361987;32;33387;-58
2023/06/22 00:33:26;;;;;;;9.73;3.87;;;;;;;27.22;55.05;99808.53;4361883;32;33626;-58
2023/06/22 00:35:54;;;;;;;7.05;3.40;;;;;;;27.07;55.13;99795.94;4361487;32;35627;-57
2023/06/22 00:38:21;;;;;;;15.68;4.65;;;;;;;27.16;54.48;99793.81;4349753;32;34861;-58
2023/06/22 00:40:49;;;;;;;9.27;4.03;;;;;;;27.20;54.53;99799.69;4346959;32;32704;-58
2023/06/22 00:43:16;;;;;;;6.85;3.45;;;;;;;27.22;54.69;99803.03;4350238;32;34960;-58
2023/06/22 00:45:44;;;;;;;8.23;3.80;;;;;;;27.24;54.84;99796.25;4353531;32;35178;-58
2023/06/22 00:48:12;;;;;;;7.82;3.42;;;;;;;27.23;54.57;99802.00;4360532;32;33676;-58
2023/06/22 00:50:40;;;;;;;6.53;3.50;;;;;;;27.28;54.15;99803.00;4345393;32;33916;-58
2023/06/22 00:53:08;;;;;;;10.45;4.00;;;;;;;27.23;54.42;99793.75;4360397;32;33696;-58
2023/06/22 00:55:43;;;;;;;12.50;5.03;;;;;;;27.10;54.58;99786.41;4357783;32;34160;-57
2023/06/22 00:58:11;;;;;;;8.57;3.50;;;;;;;27.13;54.79;99792.34;4347295;32;33854;-58
2023/06/22 01:00:39;;;;;;;6.70;3.85;;;;;;;27.10;54.89;99794.66;4346499;33;34511;-56
2023/06/22 01:03:10;;;;;;;14.75;4.43;;;;;;;27.11;54.81;99799.06;4346619;33;33767;-58
2023/06/22 01:05:39;;;;;;;7.62;4.15;;;;;;;26.96;55.14;99802.09;4347285;32;34251;-57
2023/06/22 01:08:31;;;;;;;8.38;3.17;;;;;;;26.88;55.56;99805.13;4344613;32;34806;-57
2023/06/22 01:11:09;;;;;;;13.85;3.85;;;;;;;26.85;55.71;99794.59;4360009;32;33000;-57
2023/06/22 01:13:45;;;;;;;9.50;4.00;;;;;;;26.88;55.80;99791.41;4347619;32;33469;-58
2023/06/22 01:16:29;;;;;;;12.52;4.30;;;;;;;26.71;56.56;99783.69;4355606;32;33994;-58
2023/06/22 01:18:59;;;;;;;10.50;4.03;;;;;;;26.52;57.14;99778.25;4333287;33;33936;-59
2023/06/22 01:21:29;;;;;;;8.05;3.72;;;;;;;26.62;56.76;99779.50;4333328;33;33632;-57
2023/06/22 01:24:16;;;;;;;10.18;4.00;;;;;;;26.63;56.36;99780.34;4346924;32;33953;-58
2023/06/22 01:27:10;;;;;;;9.25;3.72;;;;;;;26.63;56.01;99778.44;4358474;32;34432;-57
2023/06/22 01:29:38;;;;;;;8.23;3.65;;;;;;;26.64;55.84;99779.25;4326880;33;34946;-57
2023/06/22 01:32:07;;;;;;;9.00;4.05;;;;;;;26.48;55.51;99775.97;4308706;33;33412;-57
2023/06/22 01:34:37;;;;;;;7.85;4.03;;;;;;;26.64;55.48;99773.78;4316793;33;33943;-58
2023/06/22 01:37:05;;;;;;;6.95;3.25;;;;;;;26.69;55.19;99771.22;4304892;33;34192;-58
2023/06/22 01:39:34;;;;;;;8.32;4.00;;;;;;;26.67;54.88;99776.91;4326211;33;32557;-58
2023/06/22 01:42:02;;;;;;;10.02;3.47;;;;;;;26.76;54.63;99777.50;4329115;33;33396;-58
2023/06/22 01:44:29;;;;;;;9.63;4.18;;;;;;;26.61;55.54;99769.59;4308267;33;33721;-57
2023/06/22 01:46:57;;;;;;;11.32;3.30;;;;;;;26.57;55.62;99765.56;4310719;33;33729;-58
2023/06/22 01:49:25;;;;;;;8.50;3.30;;;;;;;26.69;55.74;99768.47;4320113;33;35008;-58
2023/06/22 01:51:54;;;;;;;5.90;3.50;;;;;;;26.67;56.04;99774.16;4314080;33;33524;-58
2023/06/22 01:54:22;;;;;;;8.77;3.72;;;;;;;26.76;56.08;99776.69;4315243;33;33938;-58
2023/06/22 01:56:49;;;;;;;5.97;3.30;;;;;;;26.84;55.30;99776.44;4317133;33;35155;-58
2023/06/22 01:59:29;;;;;;;11.75;3.95;;;;;;;26.75;55.70;99777.75;4317354;33;33758;-58
2023/06/22 02:02:08;;;;;;;10.18;3.80;;;;;;;26.72;55.70;99781.78;4341357;32;33527;-58
2023/06/22 02:04:48;;;;;;;8.48;3.12;;;;;;;26.70;55.69;99775.66;4333886;32;34990;-58
2023/06/22 02:07:18;;;;;;;9.15;4.55;;;;;;;26.65;55.78;99780.97;4338302;32;34599;-57
2023/06/22 02:09:47;;;;;;;10.13;3.28;;;;;;;26.65;55.66;99775.47;4333400;33;33875;-57
2023/06/22 02:12:18;;;;;;;6.37;2.97;;;;;;;26.67;55.51;99784.31;4342036;32;34468;-58
2023/06/22 02:14:47;;;;;;;7.72;3.87;;;;;;;26.59;55.72;99779.94;4351782;32;33479;-57
2023/06/22 02:17:17;;;;;;;9.35;4.03;;;;;;;26.61;55.66;99783.31;4354621;32;33880;-57
2023/06/22 02:19:45;;;;;;;8.07;3.37;;;;;;;26.62;55.90;99790.47;4347683;32;35003;-58
2023/06/22 02:22:14;;;;;;;13.95;3.70;;;;;;;26.62;55.88;99793.22;4360755;32;33510;-58
2023/06/22 02:24:43;;;;;;;10.00;4.28;;;;;;;26.57;56.16;99790.28;4349456;32;34315;-57
2023/06/22 02:27:10;;;;;;;9.82;3.28;;;;;;;26.60;55.93;99791.75;4346539;32;35510;-57
2023/06/22 02:29:38;;;;;;;8.38;4.15;;;;;;;26.41;56.23;99802.53;4346200;33;33990;-58
2023/06/22 02:32:06;;;;;;;4.50;2.85;;;;;;;26.36;55.88;99802.37;4355360;32;33697;-58
2023/06/22 02:34:34;;;;;;;8.48;3.55;;;;;;;26.38;55.81;99804.88;4359746;32;33772;-57
2023/06/22 02:37:02;;;;;;;8.38;2.97;;;;;;;26.47;55.41;99814.56;4354521;32;33758;-58
2023/06/22 02:39:29;;;;;;;4.68;2.45;;;;;;;26.39;55.69;99815.66;4347017;32;34107;-58
2023/06/22 02:41:57;;;;;;;7.12;4.20;;;;;;;26.48;55.45;99816.28;4356795;32;33192;-58
2023/06/22 02:44:25;;;;;;;7.15;3.78;;;;;;;26.44;55.70;99815.00;4346514;32;34711;-57
2023/06/22 02:46:54;;;;;;;9.13;3.70;;;;;;;26.34;55.96;99814.62;4351710;32;33706;-62
2023/06/22 02:49:21;;;;;;;8.10;3.60;;;;;;;26.41;55.25;99812.69;4346199;32;34094;-57
2023/06/22 02:51:49;;;;;;;8.55;3.85;;;;;;;26.39;55.00;99814.81;4351376;32;33379;-56
2023/06/22 02:54:17;;;;;;;7.35;3.87;;;;;;;26.37;54.83;99823.25;4354925;32;33742;-56
2023/06/22 02:56:45;;;;;;;8.18;3.72;;;;;;;26.35;54.85;99830.00;4348516;32;34377;-57
2023/06/22 02:59:13;;;;;;;12.15;3.70;;;;;;;26.18;55.31;99821.41;4346080;32;35370;-57
2023/06/22 03:01:40;;;;;;;10.57;3.17;;;;;;;26.21;55.16;99824.56;4345351;32;34643;-57
2023/06/22 03:04:09;;;;;;;5.43;2.90;;;;;;;25.79;56.06;99814.91;4359566;32;33465;-57
2023/06/22 03:06:40;;;;;;;5.40;3.25;;;;;;;25.99;55.30;99806.69;4357796;32;33870;-57
2023/06/22 03:09:08;;;;;;;12.57;4.20;;;;;;;25.96;55.43;99801.63;4361023;32;35094;-56
2023/06/22 03:11:36;;;;;;;7.68;3.83;;;;;;;25.96;55.49;99807.09;4358392;32;33635;-56
2023/06/22 03:14:04;;;;;;;9.43;2.92;;;;;;;25.93;55.62;99805.63;4359024;32;33470;-56
2023/06/22 03:16:32;;;;;;;11.65;3.53;;;;;;;25.93;55.78;99813.00;4359013;32;34879;-57
2023/06/22 03:19:00;;;;;;;11.45;3.85;;;;;;;25.86;56.38;99809.44;4354553;32;33398;-56
2023/06/22 03:21:28;;;;;;;7.85;3.60;;;;;;;25.85;56.34;99813.25;4359540;32;34550;-56
2023/06/22 03:23:56;;;;;;;9.77;3.87;;;;;;;25.92;56.37;99814.06;4360929;32;33713;-57
2023/06/22 03:26:26;;;;;;;8.25;3.58;;;;;;;25.93;56.52;99815.75;4363089;32;34197;-56
2023/06/22 03:28:54;;;;;;;7.90;3.75;;;;;;;25.94;56.81;99812.81;4347983;32;34176;-56
2023/06/22 03:31:22;;;;;;;7.20;3.35;;;;;;;25.99;56.55;99799.28;4348009;32;35495;-56
2023/06/22 03:33:50;;;;;;;10.68;3.40;;;;;;;25.93;56.58;99808.34;4345448;32;34936;-56
2023/06/22 03:36:18;;;;;;;9.70;3.12;;;;;;;25.87;56.52;99805.63;4352983;32;34400;-57
2023/06/22 03:38:47;;;;;;;6.60;3.47;;;;;;;26.04;56.10;99809.63;4357145;32;33198;-56
2023/06/22 03:41:16;;;;;;;8.38;3.47;;;;;;;26.05;56.11;99807.72;4359716;32;34709;-57
2023/06/22 03:43:43;;;;;;;9.55;3.20;;;;;;;26.06;56.25;99804.75;4353612;32;33639;-56
2023/06/22 03:46:11;;;;;;;8.48;3.53;;;;;;;25.90;56.63;99808.78;4345491;32;33709;-57
2023/06/22 03:48:39;;;;;;;12.15;4.30;;;;;;;25.84;56.84;99806.88;4358945;32;33932;-56
2023/06/22 03:51:06;;;;;;;11.60;4.53;;;;;;;26.00;56.10;99801.00;4360730;32;33553;-57
2023/06/22 03:53:34;;;;;;;7.15;3.35;;;;;;;25.99;56.01;99802.03;4360376;32;33776;-57
2023/06/22 03:56:02;;;;;;;8.10;3.90;;;;;;;25.73;57.05;99804.78;4366857;32;34984;-57
2023/06/22 03:58:32;;;;;;;9.48;3.50;;;;;;;25.83;56.91;99812.59;4358281;32;33810;-57
2023/06/22 04:01:00;;;;;;;8.05;3.45;;;;;;;25.91;56.78;99802.28;4355589;32;33446;-57
2023/06/22 04:03:28;;;;;;;7.07;4.15;;;;;;;25.95;56.94;99806.25;4353540;32;33616;-57
2023/06/22 04:05:56;;;;;;;10.48;4.12;;;;;;;26.00;56.87;99809.22;4342107;32;34625;-57
2023/06/22 04:08:23;;;;;;;9.57;3.67;;;;;;;26.04;56.68;99806.88;4359625;32;34745;-57
2023/06/22 04:10:51;;;;;;;9.48;3.15;;;;;;;26.04;56.64;99806.06;4360709;32;33383;-57
2023/06/22 04:13:18;;;;;;;20.45;4.53;;;;;;;26.12;56.45;99803.91;4355164;32;33608;-56
2023/06/22 04:15:46;;;;;;;13.05;4.10;;;;;;;26.14;56.26;99807.28;4350103;32;35028;-57
2023/06/22 04:18:13;;;;;;;6.72;3.62;;;;;;;26.27;56.05;99808.31;4358585;32;34004;-56
2023/06/22 04:20:41;;;;;;;10.73;4.22;;;;;;;26.31;55.91;99806.81;4348056;32;33317;-57
2023/06/22 04:23:08;;;;;;;11.12;4.78;;;;;;;26.32;56.05;99803.00;4357055;32;33639;-56
2023/06/22 04:25:36;;;;;;;6.05;3.37;;;;;;;26.38;55.89;99810.37;4369485;32;33924;-56
2023/06/22 04:28:04;;;;;;;8.68;3.37;;;;;;;26.54;55.58;99812.66;4359126;32;35133;-57
2023/06/22 04:30:33;;;;;;;8.13;3.95;;;;;;;26.51;56.21;99802.13;4352701;32;33824;-57
2023/06/22 04:33:01;;;;;;;6.70;3.20;;;;;;;26.69;55.37;99805.00;4351130;32;33714;-57
2023/06/22 04:35:28;;;;;;;11.43;3.40;;;;;;;26.75;54.97;99807.94;4355037;32;34149;-57
2023/06/22 04:37:58;;;;;;;8.30;3.62;;;;;;;26.84;54.54;99823.13;4359222;32;33995;-57
2023/06/22 04:40:26;;;;;;;9.13;2.92;;;;;;;26.60;55.00;99828.25;4347692;32;33960;-57
2023/06/22 04:42:54;;;;;;;7.18;3.60;;;;;;;26.69;54.65;99823.38;4346579;32;33934;-57
2023/06/22 04:45:21;;;;;;;15.00;4.18;;;;;;;26.83;54.30;99827.75;4347489;33;34046;-57
2023/06/22 04:47:49;;;;;;;8.02;3.92;;;;;;;26.99;54.26;99839.28;4349167;32;34479;-57
2023/06/22 04:50:17;;;;;;;7.10;2.80;;;;;;;26.91;54.10;99841.22;4347530;32;32995;-58
2023/06/22 04:52:46;;;;;;;8.15;3.40;;;;;;;26.91;53.15;99841.22;4351184;32;34693;-57
2023/06/22 04:55:18;;;;;;;10.90;3.50;;;;;;;26.86;52.92;99838.28;4359780;32;33745;-56
2023/06/22 04:57:48;;;;;;;8.32;2.55;;;;;;;26.84;53.22;99842.34;4360334;32;33959;-57
2023/06/22 05:00:18;;;;;;;5.97;3.03;;;;;;;26.90;53.40;99844.19;4357455;32;33770;-58
2023/06/22 05:02:46;;;;;;;7.95;4.20;;;;;;;26.93;53.32;99843.75;4346307;32;34476;-57
2023/06/22 05:05:14;;;;;;;10.38;4.28;;;;;;;26.75;53.33;99846.38;4347357;32;34000;-57
2023/06/22 05:07:44;;;;;;;7.62;3.37;;;;;;;26.71;53.80;99848.72;4349344;32;33742;-57
2023/06/22 05:10:12;;;;;;;8.48;3.62;;;;;;;26.85;53.50;99852.25;4359538;32;33378;-57
2023/06/22 05:12:41;;;;;;;8.30;3.70;;;;;;;26.91;53.58;99856.87;4352392;32;35095;-57
2023/06/22 05:15:09;;;;;;;6.82;3.58;;;;;;;27.00;53.59;99860.19;4360173;32;33886;-57
2023/06/22 05:17:42;;;;;;;20.45;5.07;;;;;;;27.08;53.50;99860.78;4356216;32;35341;-57
2023/06/22 05:20:12;;;;;;;16.67;5.25;;;;;;;27.16;53.41;99868.81;4346832;32;34362;-57
2023/06/22 05:22:39;;;;;;;12.57;3.58;;;;;;;27.25;53.45;99872.13;4359271;32;34629;-57
2023/06/22 05:25:10;;;;;;;12.15;3.90;;;;;;;27.33;53.47;99876.53;4358811;32;33859;-57
2023/06/22 05:27:39;;;;;;;9.50;3.95;;;;;;;27.37;53.33;99877.78;4359525;32;34417;-57
2023/06/22 05:30:07;;;;;;;9.40;4.95;;;;;;;27.38;53.49;99874.81;4354713;32;32941;-57
2023/06/22 05:32:35;;;;;;;13.10;4.45;;;;;;;27.45;53.30;99871.16;4357111;32;35023;-57
2023/06/22 05:35:04;;;;;;;11.38;3.87;;;;;;;27.52;53.08;99872.81;4349854;32;33919;-57
2023/06/22 05:37:31;;;;;;;6.53;3.45;;;;;;;27.67;53.13;99871.63;4346618;32;34133;-58
2023/06/22 05:39:59;;;;;;;8.45;3.28;;;;;;;27.77;53.35;99886.63;4352608;32;33562;-57
2023/06/22 05:42:28;;;;;;;7.95;4.00;;;;;;;27.81;52.79;99884.25;4351763;32;34022;-57
2023/06/22 05:44:56;;;;;;;7.05;3.80;;;;;;;27.84;52.17;99881.06;4346930;32;34182;-57
2023/06/22 05:47:23;;;;;;;11.52;4.35;;;;;;;27.94;51.68;99880.56;4348972;32;33916;-57
2023/06/22 05:49:51;;;;;;;16.25;3.83;;;;;;;27.99;51.40;99892.56;4360490;32;33684;-57
2023/06/22 05:52:18;;;;;;;10.25;4.05;;;;;;;28.13;51.35;99884.22;4354420;32;181446;-57
2023/06/22 05:54:46;;;;;;;12.15;3.53;;;;;;;28.08;51.70;99885.69;4358437;32;33728;-57
2023/06/22 05:57:14;;;;;;;7.53;3.58;;;;;;;28.30;50.81;99894.37;4355345;32;33833;-57
2023/06/22 05:59:41;;;;;;;9.20;3.45;;;;;;;28.25;50.56;99877.72;4349986;32;35080;-57
2023/06/22 06:02:09;;;;;;;9.23;3.72;;;;;;;28.00;51.22;99890.66;4354460;32;33957;-57
2023/06/22 06:04:36;;;;;;;7.85;3.92;;;;;;;28.45;49.42;99888.56;4349599;32;33999;-58
2023/06/22 06:07:04;;;;;;;9.52;3.90;;;;;;;28.53;49.61;99882.75;4355137;32;35267;-57
2023/06/22 06:09:31;;;;;;;8.27;4.35;;;;;;;28.49;49.57;99889.78;4348641;32;33589;-57
2023/06/22 06:11:59;;;;;;;8.65;3.53;;;;;;;28.70;49.73;99882.13;4353684;32;34898;-57
2023/06/22 06:14:27;;;;;;;9.43;3.67;;;;;;;28.79;49.54;99886.25;4349905;32;34135;-57
2023/06/22 06:16:54;;;;;;;8.00;3.20;;;;;;;28.84;49.62;99880.91;4350434;32;33929;-58
2023/06/22 06:19:22;;;;;;;8.93;4.07;;;;;;;28.72;50.39;99880.00;4355330;32;33084;-57
2023/06/22 06:21:50;;;;;;;9.25;3.65;;;;;;;29.02;50.40;99880.06;4351393;32;33847;-57
2023/06/22 06:24:17;;;;;;;9.45;3.35;;;;;;;29.10;50.01;99870.66;4354418;32;35265;-58
2023/06/22 06:26:45;;;;;;;7.68;3.65;;;;;;;29.04;50.19;99882.59;4348963;32;35140;-57
2023/06/22 06:29:12;;;;;;;10.00;4.32;;;;;;;28.84;49.44;99874.56;4346972;32;34393;-57
2023/06/22 06:31:40;;;;;;;10.45;3.78;;;;;;;29.07;49.57;99873.88;4354540;32;33486;-57
2023/06/22 06:34:08;;;;;;;6.65;2.78;;;;;;;29.09;49.36;99877.25;4360372;32;33727;-57
2023/06/22 06:36:35;;;;;;;10.70;4.50;;;;;;;29.28;48.42;99873.38;4357452;32;32817;-57
2023/06/22 06:39:03;;;;;;;9.07;3.33;;;;;;;29.28;46.17;99876.12;4348849;32;33364;-57
2023/06/22 06:41:31;;;;;;;8.30;3.85;;;;;;;29.32;47.52;99876.50;4355945;32;33601;-57
2023/06/22 06:44:00;;;;;;;10.75;4.00;;;;;;;29.12;47.07;99866.59;4348914;32;35110;-57
2023/06/22 06:46:28;;;;;;;7.43;3.95;;;;;;;29.34;46.80;99866.91;4348400;32;34358;-61
2023/06/22 06:48:55;;;;;;;10.82;4.20;;;;;;;29.33;48.55;99865.22;4356202;32;33408;-58
2023/06/22 06:51:23;;;;;;;10.52;3.67;;;;;;;28.95;47.35;99868.25;4349349;32;35061;-58
2023/06/22 06:53:50;;;;;;;11.77;4.15;;;;;;;29.20;48.00;99876.44;4353835;32;34205;-57
2023/06/22 06:56:18;;;;;;;7.80;2.72;;;;;;;29.35;48.54;99859.50;4348956;32;34133;-57
2023/06/22 06:58:46;;;;;;;12.60;2.87;;;;;;;29.57;47.20;99868.91;4342167;32;33898;-57
2023/06/22 07:01:13;;;;;;;7.18;3.35;;;;;;;29.63;44.78;99872.63;4347603;32;33623;-58
2023/06/22 07:03:41;;;;;;;6.60;3.22;;;;;;;29.71;44.34;99866.78;4352935;32;34850;-58
2023/06/22 07:06:09;;;;;;;9.50;3.45;;;;;;;29.80;45.16;99859.84;4355325;32;33944;-57
2023/06/22 07:08:36;;;;;;;10.48;3.67;;;;;;;29.82;44.99;99860.44;4353615;32;33505;-57
2023/06/22 07:11:04;;;;;;;7.28;3.17;;;;;;;29.84;44.56;99863.81;4357457;32;34068;-58
2023/06/22 07:13:32;;;;;;;8.50;3.42;;;;;;;30.04;44.66;99860.69;4353812;32;33665;-57
2023/06/22 07:15:59;;;;;;;7.03;3.67;;;;;;;29.64;45.88;99853.12;4349206;32;35287;-58
2023/06/22 07:18:27;;;;;;;8.23;3.80;;;;;;;29.64;44.66;99855.87;4348498;32;33390;-57
2023/06/22 07:20:55;;;;;;;11.93;3.67;;;;;;;29.54;46.27;99861.09;4358355;32;33530;-57
2023/06/22 07:23:22;;;;;;;12.90;3.83;;;;;;;29.96;44.04;99857.47;4352407;32;34173;-57
2023/06/22 07:25:50;;;;;;;6.65;3.03;;;;;;;29.93;43.48;99859.62;4348559;32;34319;-58
2023/06/22 07:28:17;;;;;;;7.60;3.95;;;;;;;29.79;44.17;99858.19;4360434;32;33700;-57
2023/06/22 07:30:46;;;;;;;9.68;3.70;;;;;;;30.03;44.47;99855.44;4357941;32;33620;-57
2023/06/22 07:33:14;;;;;;;6.62;3.62;;;;;;;30.34;43.86;99852.34;4349705;32;34904;-57
2023/06/22 07:35:41;;;;;;;8.93;4.00;;;;;;;30.25;43.70;99856.53;4359142;32;34120;-57
2023/06/22 07:38:09;;;;;;;10.35;3.45;;;;;;;30.47;43.36;99851.25;4354786;32;33726;-57
2023/06/22 07:40:37;;;;;;;14.93;4.03;;;;;;;30.52;42.82;99854.09;4363088;32;34878;-57
2023/06/22 07:43:04;;;;;;;7.72;3.67;;;;;;;30.62;42.25;99854.31;4353952;32;33837;-56
2023/06/22 07:45:34;;;;;;;12.48;4.82;;;;;;;30.75;41.57;99853.19;4367157;32;33536;-57
2023/06/22 07:48:02;;;;;;;10.85;5.43;;;;;;;30.60;41.92;99852.91;4358012;32;34412;-62
2023/06/22 07:50:31;;;;;;;11.02;4.65;;;;;;;30.70;41.64;99853.12;4359516;32;33741;-58
2023/06/22 07:52:59;;;;;;;9.80;5.15;;;;;;;30.64;42.25;99849.41;4368930;32;34008;-58
2023/06/22 07:55:26;;;;;;;9.15;5.35;;;;;;;30.88;42.22;99852.12;4349340;32;35230;-58
2023/06/22 07:57:54;;;;;;;10.63;4.57;;;;;;;30.66;41.37;99853.81;4354824;32;33311;-58
2023/06/22 08:00:22;;;;;;;11.85;4.75;;;;;;;30.64;43.21;99854.09;4360054;32;32951;-57
2023/06/22 08:02:50;;;;;;;10.85;5.93;;;;;;;30.82;42.79;99850.34;4350277;32;33883;-57
2023/06/22 08:05:17;;;;;;;11.40;5.55;;;;;;;30.88;43.39;99846.59;4354447;32;34903;-58
2023/06/22 08:07:49;;;;;;;11.45;6.43;;;;;;;30.96;42.29;99837.09;4366330;32;34807;-58
2023/06/22 08:10:18;;;;;;;11.25;6.12;;;;;;;30.57;42.84;99840.41;4371228;32;34529;-58
2023/06/22 08:12:46;;;;;;;12.85;7.68;;;;;;;30.83;42.92;99841.81;4368964;32;34877;-58
2023/06/22 08:15:14;;;;;;;8.88;6.60;;;;;;;30.92;42.31;99844.19;4365216;32;34297;-57
2023/06/22 08:17:41;;;;;;;10.75;6.87;;;;;;;31.10;40.11;99843.97;4365497;32;33430;-58
2023/06/22 08:20:11;;;;;;;10.10;7.28;;;;;;;31.21;40.73;99845.03;4363364;32;34263;-58
2023/06/22 08:22:43;;;;;;;12.57;6.82;;;;;;;31.27;41.02;99846.81;4360218;32;34117;-58
2023/06/22 08:25:11;;;;;;;9.38;6.75;;;;;;;30.68;40.44;99846.97;4353833;32;34823;-58
2023/06/22 08:27:39;;;;;;;14.27;8.43;;;;;;;30.97;40.44;99845.12;4358997;32;33421;-58
2023/06/22 08:30:07;;;;;;;13.50;6.90;;;;;;;30.70;40.41;99846.75;4356355;32;36518;-58
2023/06/22 08:32:35;;;;;;;11.85;7.62;;;;;;;30.64;41.90;99843.03;4349443;32;33901;-58
2023/06/22 08:35:03;;;;;;;11.27;6.72;;;;;;;30.69;41.59;99837.62;4359356;32;33940;-58
2023/06/22 08:37:31;;;;;;;11.93;6.78;;;;;;;31.02;41.56;99838.88;4357386;32;33408;-58
2023/06/22 08:40:00;;;;;;;9.57;6.78;;;;;;;31.12;41.03;99835.47;4369342;32;33693;-58
2023/06/22 08:42:28;;;;;;;13.43;7.93;;;;;;;31.50;40.63;99829.28;4363577;32;33936;-58
2023/06/22 08:44:56;;;;;;;11.45;7.37;;;;;;;31.47;40.83;99827.00;4368451;32;33985;-58
2023/06/22 08:47:24;;;;;;;11.12;8.05;;;;;;;31.36;40.85;99825.13;4359324;32;33599;-58
2023/06/22 08:49:51;;;;;;;9.73;6.95;;;;;;;31.00;42.36;99819.75;4355868;32;34074;-59
2023/06/22 08:52:19;;;;;;;14.20;7.43;;;;;;;31.25;42.14;99822.16;4369850;32;34114;-58
2023/06/22 08:54:47;;;;;;;10.25;7.10;;;;;;;31.16;41.72;99823.66;4354729;32;34955;-58
2023/06/22 08:57:15;;;;;;;9.15;8.02;;;;;;;31.37;41.48;99821.31;4364491;32;33268;-58
2023/06/22 08:59:43;;;;;;;11.43;7.53;;;;;;;31.63;41.13;99812.34;4357675;32;34916;-58
2023/06/22 09:02:11;;;;;;;11.70;7.30;;;;;;;31.57;41.30;99812.50;4360953;32;33631;-58
2023/06/22 09:04:38;;;;;;;13.88;8.57;;;;;;;31.66;41.05;99809.09;4349359;32;33953;-58
2023/06/22 09:07:06;;;;;;;12.23;8.73;;;;;;;31.44;41.46;99808.16;4370720;32;33401;-58
2023/06/22 09:09:34;;;;;;;18.62;8.68;;;;;;;31.43;42.10;99804.56;4363305;32;33568;-58
2023/06/22 09:12:01;;;;;;;12.10;8.32;;;;;;;31.79;42.77;99805.97;4366031;32;35159;-58
2023/06/22 09:14:29;;;;;;;12.23;7.70;;;;;;;31.86;41.22;99802.19;4364834;32;34382;-59
2023/06/22 09:16:57;;;;;;;13.77;8.95;;;;;;;32.21;40.72;99799.97;4361831;32;34248;-58
2023/06/22 09:19:24;;;;;;;11.02;7.60;;;;;;;31.84;41.96;99802.44;4364409;32;33936;-58
2023/06/22 09:21:52;;;;;;;12.90;8.30;;;;;;;31.88;41.09;99797.22;4365185;32;35049;-58
2023/06/22 09:24:20;;;;;;;10.40;6.97;;;;;;;32.02;40.63;99798.59;4357849;32;33890;-58
2023/06/22 09:26:47;;;;;;;11.90;9.07;;;;;;;32.31;40.28;99795.69;4368318;32;32514;-58
2023/06/22 09:29:15;;;;;;;14.85;8.60;;;;;;;32.32;40.53;99794.56;4368192;32;35168;-58
2023/06/22 09:31:44;;;;;;;11.23;7.85;;;;;;;31.92;40.34;99798.44;4361177;32;35029;-58
2023/06/22 09:34:11;;;;;;;10.80;7.80;;;;;;;32.08;40.46;99794.81;4355397;32;34248;-58
2023/06/22 09:36:41;;;;;;;15.07;8.48;;;;;;;32.50;38.87;99793.47;4363694;32;34387;-58
2023/06/22 09:39:08;;;;;;;13.05;9.35;;;;;;;32.09;40.44;99798.41;4355363;32;33674;-58
2023/06/22 09:41:36;;;;;;;11.55;8.23;;;;;;;32.34;39.72;99787.69;4368447;32;33967;-58
2023/06/22 09:44:04;;;;;;;13.52;9.00;;;;;;;32.64;38.52;99795.56;4359746;32;34471;-58
2023/06/22 09:46:31;;;;;;;9.57;7.25;;;;;;;32.87;38.63;99791.69;4362979;32;33801;-58
2023/06/22 09:48:59;;;;;;;11.93;8.75;;;;;;;32.43;39.79;99786.19;4355383;32;33620;-58
2023/06/22 09:51:27;;;;;;;9.60;6.85;;;;;;;32.93;39.16;99781.47;4370384;32;33727;-58
2023/06/22 09:53:54;;;;;;;17.92;8.00;;;;;;;32.98;38.03;99786.28;4364211;32;34031;-58
2023/06/22 09:56:22;;;;;;;13.98;7.55;;;;;;;33.48;37.90;99779.53;4366665;32;34585;-58
2023/06/22 09:58:52;;;;;;;13.68;7.80;;;;;;;33.43;38.07;99793.38;4360987;32;33730;-57
2023/06/22 10:01:21;;;;;;;12.73;8.65;;;;;;;33.33;37.27;99791.34;4358543;32;33816;-58
2023/06/22 10:03:49;;;;;;;13.57;8.75;;;;;;;33.70;36.75;99787.78;4354734;32;33857;-58
2023/06/22 10:06:17;;;;;;;12.88;7.78;;;;;;;33.66;37.31;99781.94;4363994;32;33872;-58
2023/06/22 10:08:44;;;;;;;11.32;7.28;;;;;;;33.98;36.99;99776.34;4369750;32;33546;-58
2023/06/22 10:11:12;;;;;;;15.73;8.10;;;;;;;33.84;36.64;99786.25;4365608;32;33699;-58
2023/06/22 10:13:39;;;;;;;10.25;6.93;;;;;;;33.82;36.33;99782.88;4358036;32;33994;-59
2023/06/22 10:16:07;;;;;;;13.05;7.87;;;;;;;33.97;36.62;99777.44;4354225;32;34427;-58
2023/06/22 10:18:35;;;;;;;10.02;7.95;;;;;;;34.01;36.96;99775.81;4347081;32;34375;-58
2023/06/22 10:21:02;;;;;;;11.93;7.12;;;;;;;34.46;36.36;99779.94;4359548;32;34039;-58
2023/06/22 10:23:30;;;;;;;12.77;8.32;;;;;;;34.47;35.50;99775.22;4367288;32;35222;-58
2023/06/22 10:25:58;;;;;;;13.70;8.95;;;;;;;34.41;36.11;99776.31;4363267;32;32887;-58
2023/06/22 10:28:26;;;;;;;12.32;8.50;;;;;;;33.75;36.10;99776.75;4353976;32;33609;-58
2023/06/22 10:30:53;;;;;;;11.32;8.55;;;;;;;33.84;36.67;99781.53;4346311;32;33635;-58
2023/06/22 10:33:21;;;;;;;12.82;8.30;;;;;;;34.53;35.77;99772.22;4348120;32;34165;-58
2023/06/22 10:35:48;;;;;;;13.43;7.78;;;;;;;34.58;35.61;99771.41;4356012;32;34325;-58
2023/06/22 10:38:16;;;;;;;15.23;8.50;;;;;;;34.92;35.28;99777.34;4357915;32;33865;-58
2023/06/22 10:40:44;;;;;;;12.35;7.55;;;;;;;35.07;34.76;99767.41;4352601;32;33798;-59
2023/06/22 10:43:11;;;;;;;11.75;7.30;;;;;;;35.14;34.07;99771.56;4361751;32;34015;-58
2023/06/22 10:45:40;;;;;;;12.48;8.05;;;;;;;34.92;35.36;99773.72;4359601;32;35705;-58
2023/06/22 10:48:07;;;;;;;12.57;7.87;;;;;;;34.97;34.88;99763.47;4366188;32;33966;-59
2023/06/22 10:50:35;;;;;;;12.60;7.85;;;;;;;34.82;35.39;99766.19;4368723;32;33565;-58
2023/06/22 10:53:03;;;;;;;10.95;9.15;;;;;;;35.14;35.59;99762.41;4369977;32;33032;-59
2023/06/22 10:55:30;;;;;;;9.82;8.10;;;;;;;35.15;35.26;99756.53;4366489;32;34325;-57
2023/06/22 10:58:19;;;;;;;9.80;6.53;;;;;;;35.43;34.88;99760.72;4368967;32;35160;-57
2023/06/22 11:00:47;;;;;;;11.82;7.97;;;;;;;35.33;34.39;99759.91;4367040;32;34146;-57
2023/06/22 11:03:14;;;;;;;16.75;8.10;;;;;;;35.20;35.95;99769.62;4363118;32;34030;-57
2023/06/22 11:05:42;;;;;;;10.77;7.80;;;;;;;35.15;34.20;99762.09;4367096;32;33081;-57
2023/06/22 11:08:10;;;;;;;12.23;7.40;;;;;;;34.95;35.18;99754.53;4369156;32;33903;-57
2023/06/22 11:10:37;;;;;;;10.27;7.10;;;;;;;35.42;34.74;99761.84;4359207;32;34243;-57
2023/06/22 11:13:09;;;;;;;12.75;8.43;;;;;;;35.59;34.26;99752.41;4358120;32;32842;-58
2023/06/22 11:15:39;;;;;;;14.13;7.85;;;;;;;35.73;34.28;99755.44;4368379;32;33629;-59
2023/06/22 11:18:07;;;;;;;11.20;8.05;;;;;;;35.57;35.00;99749.06;4353762;32;33687;-57
2023/06/22 11:20:38;;;;;;;7.97;6.28;;;;;;;35.11;34.31;99751.81;4348419;32;33794;-58
2023/06/22 11:23:06;;;;;;;11.18;7.32;;;;;;;35.43;33.91;99738.47;4349866;32;35211;-58
2023/06/22 11:25:38;;;;;;;14.00;8.82;;;;;;;35.26;34.95;99742.66;4343128;32;33529;-58
2023/06/22 11:28:05;;;;;;;12.37;8.52;;;;;;;35.30;34.13;99741.81;4349279;32;33912;-58
2023/06/22 11:30:34;;;;;;;13.32;8.80;;;;;;;35.12;34.95;99740.44;4362461;32;33655;-59
2023/06/22 11:33:01;;;;;;;11.18;6.60;;;;;;;34.58;35.95;99748.34;4358772;32;33810;-58
2023/06/22 11:35:29;;;;;;;12.05;7.47;;;;;;;34.71;35.47;99742.28;4361701;32;33328;-58